createdAt,value
2023-01-21T00:06:15.367Z,-0.69
2023-01-21T00:16:19.123Z,-0.88
2023-01-21T00:26:23.314Z,-0.93
2023-01-21T00:36:29.997Z,-0.98
2023-01-21T00:46:34.153Z,-0.91
2023-01-21T00:56:37.910Z,-1.05
2023-01-21T01:06:41.759Z,-1.11
2023-01-21T01:16:47.175Z,-1.16
2023-01-21T01:26:50.782Z,-1.17
2023-01-21T01:36:54.486Z,-1.14
2023-01-21T01:47:03.529Z,-1.22
2023-01-21T01:57:10.658Z,-1.09
2023-01-21T02:07:16.919Z,-0.96
2023-01-21T02:17:38.933Z,-1.04
2023-01-21T02:28:27.343Z,-1.20
2023-01-21T02:39:12.604Z,-1.30
2023-01-21T02:49:45.464Z,-1.23
2023-01-21T02:59:53.752Z,-1.29
2023-01-21T03:10:06.935Z,-1.24
2023-01-21T03:20:32.403Z,-1.33
2023-01-21T03:30:40.774Z,-1.39
2023-01-21T03:41:05.489Z,-1.26
2023-01-21T03:51:15.416Z,-1.12
2023-01-21T04:01:19.626Z,-1.16
2023-01-21T04:11:23.482Z,-1.12
2023-01-21T04:21:27.169Z,-1.11
2023-01-21T04:31:30.968Z,-1.05
2023-01-21T04:41:34.871Z,-0.90
2023-01-21T04:51:39.702Z,-0.88
2023-01-21T05:01:43.293Z,-0.87
2023-01-21T05:11:47.588Z,-0.94
2023-01-21T05:21:51.367Z,-1.09
2023-01-21T05:31:55.078Z,-1.16
2023-01-21T05:41:58.917Z,-1.18
2023-01-21T05:52:02.651Z,-1.16
2023-01-21T06:02:08.031Z,-1.11
2023-01-21T06:12:13.483Z,-1.01
2023-01-21T06:22:18.951Z,-1.08
2023-01-21T06:32:23.188Z,-1.16
2023-01-21T06:42:27.114Z,-1.23
2023-01-21T06:52:32.878Z,-1.23
2023-01-21T07:02:39.568Z,-1.26
2023-01-21T07:12:43.314Z,-1.28
2023-01-21T07:22:46.939Z,-1.28
2023-01-21T07:32:50.918Z,-1.24
2023-01-21T07:42:57.681Z,-1.25
2023-01-21T07:53:02.337Z,-1.22
2023-01-21T08:03:06.322Z,-1.20
2023-01-21T08:13:10.110Z,-1.13
2023-01-21T08:23:38.625Z,-1.16
2023-01-21T08:33:44.676Z,-1.22
2023-01-21T08:43:50.688Z,-1.21
2023-01-21T08:53:55.521Z,-1.09
2023-01-21T09:04:01.635Z,-0.99
2023-01-21T09:14:05.353Z,-0.84
2023-01-21T09:24:10.650Z,-0.70
2023-01-21T09:34:14.749Z,-0.60
2023-01-21T09:44:35.110Z,-0.49
2023-01-21T09:54:42.478Z,-0.39
2023-01-21T10:04:54.312Z,-0.33
2023-01-21T10:15:07.204Z,-0.22
2023-01-21T10:25:18.910Z,-0.10
2023-01-21T10:35:41.845Z,0.09
2023-01-21T10:46:05.455Z,0.12
2023-01-21T10:56:29.468Z,0.10
2023-01-21T11:06:35.650Z,0.06
2023-01-21T11:16:53.023Z,0.14
2023-01-21T11:27:01.469Z,0.12
2023-01-21T11:37:26.849Z,0.22
2023-01-21T11:47:54.111Z,0.27
2023-01-21T11:58:03.689Z,0.33
2023-01-21T12:08:41.802Z,0.31
2023-01-21T12:19:07.005Z,0.21
2023-01-21T12:29:40.348Z,0.21
2023-01-21T12:40:02.910Z,0.16
2023-01-21T12:50:30.082Z,0.15
2023-01-21T13:00:41.815Z,0.21
2023-01-21T13:10:52.993Z,0.20
2023-01-21T13:21:15.393Z,0.14
2023-01-21T13:31:47.756Z,0.16
2023-01-21T13:42:39.015Z,0.19
2023-01-21T13:53:16.594Z,0.23
2023-01-21T14:03:52.509Z,0.26
2023-01-21T14:14:17.628Z,0.32
2023-01-21T14:24:38.485Z,0.37
2023-01-21T14:35:15.481Z,0.29
2023-01-21T14:45:56.096Z,0.26
2023-01-21T14:56:21.996Z,0.31
2023-01-21T15:06:47.466Z,0.13
2023-01-21T15:18:06.943Z,0.19
2023-01-21T15:28:40.664Z,0.20
2023-01-21T15:38:44.465Z,0.26
2023-01-21T15:49:17.089Z,0.27
2023-01-21T15:59:36.108Z,0.14
2023-01-21T16:10:03.963Z,0.19
2023-01-21T16:20:11.671Z,0.17
2023-01-21T16:30:19.762Z,0.17
2023-01-21T16:40:30.759Z,0.07
2023-01-21T16:50:34.484Z,0.02
2023-01-21T17:00:38.230Z,0.10
2023-01-21T17:11:08.205Z,0.16
2023-01-21T17:21:49.950Z,0.15
2023-01-21T17:32:01.496Z,0.28
2023-01-21T17:42:05.446Z,0.25
2023-01-21T17:52:22.732Z,0.27
2023-01-21T18:02:26.615Z,0.14
2023-01-21T18:12:30.754Z,0.06
2023-01-21T18:22:36.221Z,0.19
2023-01-21T18:32:42.550Z,0.13
2023-01-21T18:42:47.106Z,0.15
2023-01-21T18:52:51.095Z,0.12
2023-01-21T19:02:56.887Z,0.25
2023-01-21T19:13:00.846Z,0.32
2023-01-21T19:23:07.455Z,0.44
2023-01-21T19:33:11.577Z,0.37
2023-01-21T19:43:18.169Z,0.30
2023-01-21T19:53:23.306Z,0.29
2023-01-21T20:03:29.015Z,0.30
2023-01-21T20:13:37.115Z,0.27
2023-01-21T20:23:40.985Z,0.34
2023-01-21T20:33:47.154Z,0.40
2023-01-21T20:43:51.108Z,0.33
2023-01-21T20:53:56.499Z,0.42
2023-01-21T21:04:01.285Z,0.53
2023-01-21T21:14:05.073Z,0.45
2023-01-21T21:24:17.516Z,0.46
2023-01-21T21:34:27.768Z,0.43
2023-01-21T21:44:42.875Z,0.58
2023-01-21T21:54:55.555Z,0.50
2023-01-21T22:04:59.176Z,0.39
2023-01-21T22:15:04.156Z,0.46
2023-01-21T22:25:12.133Z,0.52
2023-01-21T22:35:16.130Z,0.53
2023-01-21T22:45:22.038Z,0.33
2023-01-21T22:55:26.058Z,0.31
2023-01-21T23:05:31.722Z,0.32
2023-01-21T23:15:43.464Z,0.32
2023-01-21T23:25:58.680Z,0.31
2023-01-21T23:36:13.431Z,0.37
2023-01-21T23:46:20.693Z,0.37
2023-01-21T23:56:26.690Z,0.30
